Time;durP1;ratioP1;P1;durP2;ratioP2;P2;SDS_P1;SDS_P2;PMS_P1;PMS_P2;Temp;Humidity;BMP_temperature;BMP_pressure;BME280_temperature;BME280_humidity;BME280_pressure;Samples;Min_cycle;Max_cycle;Signal;HPM_P1;HPM_P2
2022/09/01 00:00:40;;;;;;;;;;;;;;;22.60;55.12;101869.97;5061034;28;2839;-59
2022/09/01 00:03:09;;;;;;;;;;;;;;;22.61;55.10;101867.84;5058786;28;2907;-59
2022/09/01 00:05:36;;;;;;;;;;;;;;;22.61;55.36;101864.94;5060310;28;2889;-59
2022/09/01 00:08:03;;;;;;;;;;;;;;;22.59;55.12;101863.47;5057942;28;2696;-60
2022/09/01 00:10:29;;;;;;;;;;;;;;;22.59;55.06;101863.47;5057856;28;3280;-60
2022/09/01 00:12:56;;;;;;;;;;;;;;;22.61;55.28;101864.94;5056470;28;3117;-59
2022/09/01 00:15:22;;;;;;;;;;;;;;;22.59;55.18;101857.69;5059178;28;2857;-59
2022/09/01 00:17:48;;;;;;;;;;;;;;;22.58;54.95;101861.22;5056834;28;3119;-59
2022/09/01 00:20:15;;;;;;;;;;;;;;;22.59;54.98;101874.25;5058918;28;2870;-59
2022/09/01 00:22:46;;;;;;;;;;;;;;;22.59;55.17;101871.38;5052342;28;2815;-59
2022/09/01 00:25:12;;;;;;;;;;;;;;;22.58;54.96;101867.72;5051446;28;2944;-59
2022/09/01 00:27:38;;;;;;;;;;;;;;;22.58;54.92;101864.84;5054259;28;2774;-60
2022/09/01 00:30:05;;;;;;;;;;;;;;;22.58;55.22;101873.50;5059513;28;3276;-59
2022/09/01 00:32:32;;;;;;;;;;;;;;;22.58;55.07;101867.72;5059234;28;2783;-60
2022/09/01 00:34:58;;;;;;;;;;;;;;;22.57;55.05;101865.50;5053833;28;2803;-60
2022/09/01 00:37:24;;;;;;;;;;;;;;;22.56;55.13;101864.75;5052865;28;2885;-60
2022/09/01 00:39:51;;;;;;;;;;;;;;;22.57;54.99;101859.72;5059796;28;2886;-60
2022/09/01 00:42:17;;;;;;;;;;;;;;;22.56;55.03;101861.88;5058365;28;2898;-60
2022/09/01 00:44:44;;;;;;;;;;;;;;;22.57;55.24;101866.25;5058522;28;2972;-60
2022/09/01 00:47:12;;;;;;;;;;;;;;;22.57;54.93;101859.72;5063692;28;2828;-60
2022/09/01 00:49:40;;;;;;;;;;;;;;;22.56;55.23;101870.53;5059067;28;2858;-59
2022/09/01 00:52:11;;;;;;;;;;;;;;;22.56;54.97;101863.97;5061580;28;2830;-60
2022/09/01 00:54:39;;;;;;;;;;;;;;;22.56;55.24;101853.19;5054846;28;2805;-59
2022/09/01 00:57:06;;;;;;;;;;;;;;;22.56;55.16;101861.88;5060953;28;2776;-59
2022/09/01 00:59:32;;;;;;;;;;;;;;;22.55;55.13;101863.25;5043381;28;2827;-59
2022/09/01 01:01:59;;;;;;;;;;;;;;;22.57;55.08;101862.59;5062406;28;2720;-59
2022/09/01 01:04:25;;;;;;;;;;;;;;;22.55;55.01;101857.47;5057571;28;2879;-59
2022/09/01 01:06:57;;;;;;;;;;;;;;;22.55;54.99;101854.56;5049527;28;2862;-60
2022/09/01 01:09:24;;;;;;;;;;;;;;;22.55;55.14;101851.69;5056482;28;2693;-59
2022/09/01 01:11:51;;;;;;;;;;;;;;;22.42;53.96;101858.19;5050932;28;2804;-59
2022/09/01 01:14:18;;;;;;;;;;;;;;;22.42;53.79;101855.31;5062437;28;2901;-59
2022/09/01 01:16:49;;;;;;;;;;;;;;;22.50;53.43;101855.75;5055039;28;2941;-59
2022/09/01 01:23:01;;;;;;;;;;;;;;;22.52;53.92;101858.75;5052071;28;2771;-59
2022/09/01 01:24:51;;;;;;;;;;;;;;;22.51;54.08;101860.13;5056523;28;2626;-59
2022/09/01 01:27:20;;;;;;;;;;;;;;;22.50;54.16;101855.75;5051418;28;2884;-59
2022/09/01 01:29:49;;;;;;;;;;;;;;;22.50;54.40;101857.91;5048684;28;2935;-59
2022/09/01 01:32:15;;;;;;;;;;;;;;;22.50;54.17;101857.91;5050450;28;2831;-59
2022/09/01 01:34:44;;;;;;;;;;;;;;;22.50;54.47;101855.03;5051741;28;3022;-59
2022/09/01 01:37:14;;;;;;;;;;;;;;;22.50;54.45;101855.75;5054199;28;2960;-59
2022/09/01 01:39:41;;;;;;;;;;;;;;;22.49;54.21;101853.50;5039445;28;2796;-59
2022/09/01 01:42:08;;;;;;;;;;;;;;;22.49;54.26;101854.25;5057099;28;2824;-59
2022/09/01 01:44:37;;;;;;;;;;;;;;;22.49;54.25;101857.13;5051778;28;2975;-59
2022/09/01 01:47:07;;;;;;;;;;;;;;;22.49;54.54;101862.91;5051824;28;2918;-59
2022/09/01 01:49:33;;;;;;;;;;;;;;;22.50;54.49;101855.75;5044164;28;2843;-59
2022/09/01 01:52:00;;;;;;;;;;;;;;;22.50;54.33;101857.91;5053361;28;2783;-59
2022/09/01 01:54:31;;;;;;;;;;;;;;;22.49;54.41;101857.13;5056699;28;2851;-59
2022/09/01 01:56:58;;;;;;;;;;;;;;;22.50;54.18;101857.91;5051319;28;2882;-59
2022/09/01 01:59:25;;;;;;;;;;;;;;;22.49;54.33;101862.91;5056753;28;2804;-59
2022/09/01 02:01:51;;;;;;;;;;;;;;;22.49;54.22;101859.28;5069427;28;2946;-59
2022/09/01 02:04:18;;;;;;;;;;;;;;;22.48;54.56;101852.75;5051977;28;2842;-60
2022/09/01 02:06:46;;;;;;;;;;;;;;;22.47;54.33;101851.28;5054175;28;3047;-59
2022/09/01 02:09:14;;;;;;;;;;;;;;;22.47;54.43;101857.06;5054730;28;2596;-58
2022/09/01 02:11:41;;;;;;;;;;;;;;;22.48;54.24;101858.53;5045946;28;2850;-59
2022/09/01 02:14:07;;;;;;;;;;;;;;;22.47;54.27;101859.94;5054640;28;2951;-59
2022/09/01 02:16:34;;;;;;;;;;;;;;;22.48;54.53;101861.41;5054358;28;2616;-59
2022/09/01 02:19:02;;;;;;;;;;;;;;;22.47;54.37;101851.28;5054873;28;2843;-59
2022/09/01 02:21:28;;;;;;;;;;;;;;;22.47;54.28;101857.06;5048702;28;2835;-59
2022/09/01 02:23:59;;;;;;;;;;;;;;;22.47;54.21;101856.28;5045708;28;2827;-59
2022/09/01 02:26:30;;;;;;;;;;;;;;;22.47;54.24;101856.28;5053302;28;2786;-59
2022/09/01 02:29:00;;;;;;;;;;;;;;;22.47;54.27;101850.50;5054957;28;2873;-59
2022/09/01 02:31:27;;;;;;;;;;;;;;;22.47;54.21;101856.28;5052315;28;2852;-59
2022/09/01 02:33:57;;;;;;;;;;;;;;;22.45;54.42;101856.94;5050991;28;2943;-59
2022/09/01 02:36:24;;;;;;;;;;;;;;;22.47;54.15;101853.41;5051359;28;2875;-59
2022/09/01 02:38:51;;;;;;;;;;;;;;;22.46;54.46;101852.66;5046597;28;3216;-59
2022/09/01 02:41:20;;;;;;;;;;;;;;;22.47;54.16;101850.50;5058247;28;2870;-59
2022/09/01 02:43:47;;;;;;;;;;;;;;;22.46;54.51;101849.75;5054965;28;2979;-59
2022/09/01 02:46:14;;;;;;;;;;;;;;;22.46;54.46;101852.66;5053578;28;2813;-59
2022/09/01 02:48:41;;;;;;;;;;;;;;;22.46;54.14;101854.78;5054657;28;2754;-59
2022/09/01 02:51:08;;;;;;;;;;;;;;;22.46;54.51;101849.75;5049276;28;2723;-59
2022/09/01 02:53:35;;;;;;;;;;;;;;;22.46;54.29;101854.78;5057188;28;3055;-59
2022/09/01 02:56:02;;;;;;;;;;;;;;;22.45;54.04;101842.50;5056372;28;3082;-58
2022/09/01 02:58:33;;;;;;;;;;;;;;;22.45;54.40;101845.38;5055437;28;2713;-59
2022/09/01 03:00:59;;;;;;;;;;;;;;;22.44;54.28;101849.66;5054796;28;2897;-59
2022/09/01 03:03:28;;;;;;;;;;;;;;;22.45;54.15;101838.84;5051862;28;2835;-58
2022/09/01 03:05:55;;;;;;;;;;;;;;;22.44;54.36;101852.53;5069709;28;2866;-58
2022/09/01 03:08:22;;;;;;;;;;;;;;;22.43;54.45;101848.16;5050103;28;2863;-58
2022/09/01 03:10:48;;;;;;;;;;;;;;;22.44;54.38;101846.03;5064138;28;2858;-59
2022/09/01 03:13:16;;;;;;;;;;;;;;;22.43;54.20;101838.78;5052602;28;2823;-59
2022/09/01 03:15:42;;;;;;;;;;;;;;;22.43;54.33;101848.16;5051509;28;2861;-59
2022/09/01 03:18:09;;;;;;;;;;;;;;;22.43;53.97;101839.50;5050827;28;2934;-59
2022/09/01 03:20:37;;;;;;;;;;;;;;;22.43;54.05;101839.50;5053953;28;3130;-60
2022/09/01 03:23:06;;;;;;;;;;;;;;;22.43;53.94;101839.50;5055939;28;2762;-59
2022/09/01 03:25:33;;;;;;;;;;;;;;;22.42;54.04;101837.25;5051199;28;3104;-59
2022/09/01 03:28:01;;;;;;;;;;;;;;;22.42;54.30;101843.03;5050948;28;2646;-60
2022/09/01 03:30:28;;;;;;;;;;;;;;;22.41;54.30;101839.41;5056333;28;2839;-59
2022/09/01 03:32:55;;;;;;;;;;;;;;;22.41;53.99;101835.78;5050635;28;2878;-60
2022/09/01 03:35:24;;;;;;;;;;;;;;;22.40;53.90;101837.88;5065375;28;2823;-60
2022/09/01 03:37:51;;;;;;;;;;;;;;;22.40;54.02;101843.66;5050588;28;2826;-59
2022/09/01 03:40:18;;;;;;;;;;;;;;;22.40;54.04;101835.00;5049727;28;3265;-59
2022/09/01 03:42:44;;;;;;;;;;;;;;;22.41;54.21;101830.75;5050343;28;2901;-60
2022/09/01 03:45:14;;;;;;;;;;;;;;;22.40;54.00;101840.78;5052369;28;2842;-59
2022/09/01 03:47:41;;;;;;;;;;;;;;;22.40;54.44;101846.53;5053658;28;3220;-60
2022/09/01 03:50:19;;;;;;;;;;;;;;;22.39;54.08;101836.41;5069083;28;2822;-59
2022/09/01 03:52:48;;;;;;;;;;;;;;;22.39;54.37;101833.50;5054595;28;2936;-60
2022/09/01 03:55:21;;;;;;;;;;;;;;;22.38;54.32;101847.19;5051054;28;2783;-59
2022/09/01 03:57:49;;;;;;;;;;;;;;;22.37;54.37;101842.81;5052012;28;2993;-60
2022/09/01 04:00:21;;;;;;;;;;;;;;;22.39;54.25;101839.28;5058910;28;2823;-59
2022/09/01 04:02:49;;;;;;;;;;;;;;;22.38;54.35;101835.66;5049639;28;2874;-60
2022/09/01 04:05:27;;;;;;;;;;;;;;;22.36;53.97;101835.53;5048968;28;2798;-59
2022/09/01 04:07:56;;;;;;;;;;;;;;;22.38;54.02;101832.03;5052183;28;2815;-59
2022/09/01 04:10:22;;;;;;;;;;;;;;;22.36;54.19;101829.03;5052988;28;2782;-60
2022/09/01 04:12:49;;;;;;;;;;;;;;;22.37;54.06;101836.28;5044160;28;3130;-59
2022/09/01 04:15:18;;;;;;;;;;;;;;;22.38;54.29;101832.03;5049096;28;3168;-60
2022/09/01 04:20:38;;;;;;;;;;;;;;;22.42;54.35;101832.22;5045294;28;3076;-57
2022/09/01 04:23:09;;;;;;;;;;;;;;;22.45;54.41;101835.97;5042810;28;3078;-57
2022/09/01 04:25:37;;;;;;;;;;;;;;;22.44;54.08;101835.22;5043560;28;3061;-57
2022/09/01 04:28:11;;;;;;;;;;;;;;;22.43;54.11;101833.75;5044138;28;2861;-57
2022/09/01 04:30:39;;;;;;;;;;;;;;;22.43;54.49;101836.63;5053874;28;3132;-58
2022/09/01 04:33:11;;;;;;;;;;;;;;;22.43;54.38;101833.75;5056110;28;2764;-57
2022/09/01 04:35:39;;;;;;;;;;;;;;;22.45;54.48;101836.72;5049015;28;3196;-57
2022/09/01 04:38:07;;;;;;;;;;;;;;;22.46;54.13;101838.22;5045010;28;2815;-57
2022/09/01 04:40:37;;;;;;;;;;;;;;;22.46;54.34;101838.22;5050616;28;2859;-57
2022/09/01 04:43:04;;;;;;;;;;;;;;;22.48;53.94;101835.44;5057047;28;2899;-57
2022/09/01 04:45:33;;;;;;;;;;;;;;;22.46;54.40;101844.00;5049221;28;2879;-57
2022/09/01 04:48:00;;;;;;;;;;;;;;;22.47;54.09;101839.72;5068363;28;2895;-68
2022/09/01 04:50:29;;;;;;;;;;;;;;;22.50;54.38;101838.44;5049105;28;2831;-65
2022/09/01 04:53:16;;;;;;;;;;;;;;;22.45;54.63;101841.72;5058606;28;2849;-68
2022/09/01 04:55:45;;;;;;;;;;;;;;;22.46;54.46;101837.47;5058552;28;2576;-69
2022/09/01 04:58:19;;;;;;;;;;;;;;;22.47;54.28;101839.72;5054746;28;3002;-68
2022/09/01 05:00:47;;;;;;;;;;;;;;;22.50;54.75;101835.56;5062733;28;2803;-65
2022/09/01 05:03:15;;;;;;;;;;;;;;;22.52;54.67;101841.44;5071527;28;2817;-62
2022/09/01 05:06:05;;;;;;;;;;;;;;;22.53;54.77;101842.91;5051885;28;2965;-67
2022/09/01 05:08:34;;;;;;;;;;;;;;;22.48;55.07;101844.09;5041868;28;2661;-68
2022/09/01 05:11:06;;;;;;;;;;;;;;;22.48;54.79;101840.47;5068255;28;2609;-67
2022/09/01 05:13:41;;;;;;;;;;;;;;;22.47;55.12;101841.84;5055630;28;2670;-71
2022/09/01 05:16:11;;;;;;;;;;;;;;;22.48;55.11;101846.25;5063386;28;2837;-67
2022/09/01 05:18:39;;;;;;;;;;;;;;;22.47;55.14;101851.28;5055113;28;2772;-67
2022/09/01 05:21:09;;;;;;;;;;;;;;;22.46;55.23;101852.66;5056540;28;2740;-67
2022/09/01 05:23:39;;;;;;;;;;;;;;;22.44;55.81;101846.75;5054054;28;2863;-67
2022/09/01 05:26:42;;;;;;;;;;;;;;;22.43;55.79;101844.53;5057575;28;2706;-67
2022/09/01 05:29:12;;;;;;;;;;;;;;;22.39;56.15;101850.81;5001758;28;2788;-67
2022/09/01 05:31:40;;;;;;;;;;;;;;;22.37;55.72;101842.06;5058660;28;2635;-67
2022/09/01 05:34:08;;;;;;;;;;;;;;;22.35;55.60;101833.28;5057630;28;2795;-67
2022/09/01 05:36:36;;;;;;;;;;;;;;;22.35;55.72;101839.06;5062742;28;2991;-67
2022/09/01 05:39:04;;;;;;;;;;;;;;;22.18;54.73;101846.06;5069638;28;2856;-68
2022/09/01 05:41:32;;;;;;;;;;;;;;;17.44;61.40;101855.22;5053022;28;3070;-67
2022/09/01 05:43:59;;;;;;;;;;;;;;;16.95;63.82;101854.44;5056283;28;2545;-70
2022/09/01 05:46:28;;;;;;;;;;;;;;;18.48;61.13;101856.22;5040315;28;3225;-70
2022/09/01 05:48:56;;;;;;;;;;;;;;;19.23;58.31;101854.91;5045755;28;2789;-75
2022/09/01 05:51:25;;;;;;;;;;;;;;;19.42;57.75;101845.38;5052517;28;2795;-74
2022/09/01 05:54:10;;;;;;;;;;;;;;;19.34;57.45;101855.59;5049857;28;2807;-72
2022/09/01 05:56:39;;;;;;;;;;;;;;;19.42;57.27;101842.53;5052169;28;2898;-69
2022/09/01 05:59:10;;;;;;;;;;;;;;;19.60;57.19;101845.81;5066454;28;2886;-65
2022/09/01 06:01:56;;;;;;;;;;;;;;;19.63;56.97;101841.72;5046101;28;2895;-66
2022/09/01 06:04:24;;;;;;;;;;;;;;;19.60;56.75;101845.81;5057146;28;3121;-65
2022/09/01 06:06:52;;;;;;;;;;;;;;;19.66;56.89;101840.47;5055975;28;2851;-66
2022/09/01 06:09:40;;;;;;;;;;;;;;;19.65;56.69;101850.47;5046840;28;4116;-70
2022/09/01 06:12:16;;;;;;;;;;;;;;;19.56;57.62;101839.06;5059451;28;2737;-69
2022/09/01 06:14:44;;;;;;;;;;;;;;;19.66;57.08;101857.72;5054297;28;2762;-71
2022/09/01 06:17:15;;;;;;;;;;;;;;;19.78;56.97;101849.16;5055799;28;2932;-71
2022/09/01 06:19:42;;;;;;;;;;;;;;;19.77;56.94;101853.41;5058141;28;2719;-67
2022/09/01 06:22:09;;;;;;;;;;;;;;;19.64;56.98;101853.97;5054341;28;2733;-66
2022/09/01 06:24:38;;;;;;;;;;;;;;;19.83;57.05;101861.66;5058932;28;1599;-68
2022/09/01 06:27:25;;;;;;;;;;;;;;;19.92;56.55;101863.69;5058504;28;2780;-66
2022/09/01 06:29:57;;;;;;;;;;;;;;;19.88;56.50;101851.91;5034276;28;1626;-66
2022/09/01 06:32:24;;;;;;;;;;;;;;;19.74;56.37;101865.38;5059082;28;2717;-67
2022/09/01 06:34:52;;;;;;;;;;;;;;;19.76;56.45;101862.66;5056032;28;3021;-66
2022/09/01 06:37:21;;;;;;;;;;;;;;;19.75;56.80;101866.91;5057882;28;2767;-66
2022/09/01 06:39:52;;;;;;;;;;;;;;;19.87;56.50;101867.69;5055580;28;3630;-64
2022/09/01 06:42:20;;;;;;;;;;;;;;;19.95;56.34;101868.22;5051645;28;3706;-63
2022/09/01 06:44:55;;;;;;;;;;;;;;;20.04;56.51;101864.47;5057171;28;3566;-62
2022/09/01 06:47:23;;;;;;;;;;;;;;;20.02;56.01;101866.44;5051010;28;3724;-64
2022/09/01 06:49:50;;;;;;;;;;;;;;;20.01;56.74;101859.97;5052886;28;3721;-67
2022/09/01 06:52:23;;;;;;;;;;;;;;;20.10;56.40;101872.72;5051152;28;2805;-62
2022/09/01 06:54:54;;;;;;;;;;;;;;;20.07;55.93;101868.97;5051226;28;2871;-64
2022/09/01 06:57:24;;;;;;;;;;;;;;;20.07;56.09;101865.34;5047980;28;3720;-62
2022/09/01 07:00:16;;;;;;;;;;;;;;;20.76;55.52;101876.81;5046419;28;2917;-64
2022/09/01 07:02:46;;;;;;;;;;;;;;;21.47;53.83;101869.53;5050637;28;3890;-67
2022/09/01 07:05:27;;;;;;;;;;;;;;;21.70;52.93;101874.44;5047246;28;3966;-70
2022/09/01 07:08:18;;;;;;;;;;;;;;;21.87;52.35;101875.34;5041304;28;4402;-69
2022/09/01 07:11:05;;;;;;;;;;;;;;;21.98;52.77;101877.44;5066573;28;2995;-69
2022/09/01 07:13:56;;;;;;;;;;;;;;;22.15;52.33;101879.84;5057337;28;3084;-65
2022/09/01 07:16:42;;;;;;;;;;;;;;;22.22;52.35;101880.19;5050321;28;3918;-64
2022/09/01 07:19:30;;;;;;;;;;;;;;;22.24;51.86;101880.28;5054330;28;2629;-66
2022/09/01 07:22:17;;;;;;;;;;;;;;;22.28;51.82;101883.41;5050993;28;4651;-66
2022/09/01 07:25:03;;;;;;;;;;;;;;;22.30;51.84;101877.75;5058574;28;3863;-65
2022/09/01 07:28:02;;;;;;;;;;;;;;;22.35;51.70;101877.31;5053967;28;2807;-66
2022/09/01 07:30:30;;;;;;;;;;;;;;;22.51;51.60;101868.78;5058222;28;2718;-67
2022/09/01 07:32:57;;;;;;;;;;;;;;;22.34;52.20;101872.22;5059347;28;2733;-67
2022/09/01 07:35:44;;;;;;;;;;;;;;;22.31;52.60;101867.69;5055130;28;2749;-68
2022/09/01 07:38:31;;;;;;;;;;;;;;;22.37;52.11;101874.53;5055266;28;2820;-70
2022/09/01 07:41:18;;;;;;;;;;;;;;;22.43;51.64;101882.81;5056851;28;2756;-67
2022/09/01 07:44:33;;;;;;;;;;;;;;;22.56;51.48;101876.31;5054315;28;2986;-68
2022/09/01 07:47:22;;;;;;;;;;;;;;;22.51;52.27;101874.56;5056523;28;1575;-66
2022/09/01 07:50:09;;;;;;;;;;;;;;;22.59;51.56;101877.91;5073596;28;1943;-68
2022/09/01 07:52:56;;;;;;;;;;;;;;;22.48;51.18;101880.88;5062010;28;3023;-71
2022/09/01 07:55:23;;;;;;;;;;;;;;;22.63;50.88;101867.94;5058905;28;2741;-68
2022/09/01 07:57:50;;;;;;;;;;;;;;;22.66;50.93;101878.22;5063466;28;4398;-68
2022/09/01 08:00:16;;;;;;;;;;;;;;;22.64;50.74;101878.84;5052238;28;2813;-70
2022/09/01 08:02:49;;;;;;;;;;;;;;;22.66;50.71;101875.34;5050609;28;4411;-69
2022/09/01 08:05:25;;;;;;;;;;;;;;;22.64;51.21;101878.84;5051692;28;3517;-68
2022/09/01 08:07:52;;;;;;;;;;;;;;;22.30;52.31;101883.53;5054978;28;4245;-68
2022/09/01 08:10:22;;;;;;;;;;;;;;;22.61;50.97;101885.91;5060299;28;3811;-67
2022/09/01 08:12:48;;;;;;;;;;;;;;;22.52;50.40;101887.63;5059359;28;1660;-72
2022/09/01 08:15:22;;;;;;;;;;;;;;;22.26;50.79;101883.28;5050617;28;2511;-72
2022/09/01 08:18:09;;;;;;;;;;;;;;;22.05;50.07;101892.94;5077949;28;2708;-80
2022/09/01 08:20:38;;;;;;;;;;;;;;;22.05;49.93;101893.69;5060921;28;2399;-71
2022/09/01 08:23:13;;;;;;;;;;;;;;;22.08;50.49;101892.44;5058721;28;4359;-71
2022/09/01 08:25:41;;;;;;;;;;;;;;;22.41;50.40;101891.34;5057658;28;2817;-72
2022/09/01 08:28:08;;;;;;;;;;;;;;;22.39;50.26;101885.47;5062810;28;2779;-72
2022/09/01 08:30:34;;;;;;;;;;;;;;;22.42;50.38;101884.16;5055327;28;4617;-67
2022/09/01 08:33:02;;;;;;;;;;;;;;;22.57;50.05;101882.81;5038369;28;4355;-67
2022/09/01 08:35:39;;;;;;;;;;;;;;;22.73;49.51;101897.38;5059443;28;3719;-66
2022/09/01 08:38:05;;;;;;;;;;;;;;;22.80;49.45;101887.63;5058286;28;3019;-66
2022/09/01 08:40:32;;;;;;;;;;;;;;;22.83;49.39;101886.34;5062169;28;2845;-66
2022/09/01 08:43:11;;;;;;;;;;;;;;;22.83;49.14;101886.34;5062512;28;2650;-68
2022/09/01 08:45:44;;;;;;;;;;;;;;;22.86;49.70;101890.84;5063995;28;1632;-66
2022/09/01 08:48:16;;;;;;;;;;;;;;;22.96;49.63;101888.47;5061129;28;2939;-69
2022/09/01 08:51:05;;;;;;;;;;;;;;;22.81;50.13;101883.34;5041965;28;2886;-67
2022/09/01 08:54:05;;;;;;;;;;;;;;;22.97;49.09;101889.97;5056808;28;2979;-67
2022/09/01 08:56:33;;;;;;;;;;;;;;;23.03;48.86;101883.78;5040425;28;4028;-64
2022/09/01 08:59:01;;;;;;;;;;;;;;;22.93;49.48;101878.22;5045561;28;3094;-63
2022/09/01 09:01:55;;;;;;;;;;;;;;;23.02;49.79;101875.75;5039177;28;2660;-66
2022/09/01 09:04:29;;;;;;;;;;;;;;;23.02;49.36;101867.09;5062644;28;1575;-65
2022/09/01 09:06:59;;;;;;;;;;;;;;;23.09;49.32;101878.34;5060805;28;2551;-64
2022/09/01 09:09:30;;;;;;;;;;;;;;;23.10;49.43;101876.19;5061029;28;1949;-66
2022/09/01 09:12:11;;;;;;;;;;;;;;;22.94;50.02;101885.47;5061905;28;1539;-67
2022/09/01 09:14:44;;;;;;;;;;;;;;;22.95;50.28;101880.44;5058049;28;3061;-67
2022/09/01 09:17:11;;;;;;;;;;;;;;;23.04;49.85;101870.84;5059055;28;3089;-66
2022/09/01 09:19:41;;;;;;;;;;;;;;;23.06;49.52;101875.97;5064463;28;3109;-65
2022/09/01 09:22:11;;;;;;;;;;;;;;;23.15;49.62;101880.78;5058723;28;3341;-64
2022/09/01 09:24:46;;;;;;;;;;;;;;;23.08;49.70;101879.72;5055638;28;3010;-64
2022/09/01 09:27:16;;;;;;;;;;;;;;;23.05;49.15;101874.50;5060143;28;3084;-66
2022/09/01 09:29:44;;;;;;;;;;;;;;;23.13;48.82;101874.91;5053181;28;4642;-65
2022/09/01 09:32:10;;;;;;;;;;;;;;;23.12;48.97;101864.75;5060964;28;4570;-64
2022/09/01 09:34:57;;;;;;;;;;;;;;;23.07;49.13;101865.94;5054052;28;3088;-63
2022/09/01 09:37:25;;;;;;;;;;;;;;;23.08;49.34;101868.16;5060428;28;2293;-64
2022/09/01 09:40:13;;;;;;;;;;;;;;;23.19;49.06;101872.31;5057731;28;3061;-64
2022/09/01 09:42:41;;;;;;;;;;;;;;;23.24;49.06;101859.56;5059211;28;3049;-64
2022/09/01 09:45:20;;;;;;;;;;;;;;;23.24;49.45;101858.81;5060434;28;3109;-64
2022/09/01 09:47:46;;;;;;;;;;;;;;;23.26;49.15;101868.34;5054783;28;3359;-66
2022/09/01 09:50:23;;;;;;;;;;;;;;;23.22;49.17;101856.56;5056922;28;3222;-63
2022/09/01 09:52:50;;;;;;;;;;;;;;;23.17;50.01;101866.44;5056586;28;3080;-63
2022/09/01 09:55:23;;;;;;;;;;;;;;;23.25;49.53;101861.09;5058622;28;3626;-63
2022/09/01 09:57:49;;;;;;;;;;;;;;;23.27;49.42;101864.03;5056975;28;3068;-64
2022/09/01 10:00:28;;;;;;;;;;;;;;;23.26;48.99;101868.34;5055887;28;3019;-66
2022/09/01 10:03:01;;;;;;;;;;;;;;;23.05;49.41;101868.72;5057601;28;3089;-66
2022/09/01 10:05:43;;;;;;;;;;;;;;;22.68;49.69;101866.78;5061870;28;1580;-65
2022/09/01 10:08:10;;;;;;;;;;;;;;;22.67;49.63;101868.16;5060550;28;2802;-64
2022/09/01 10:10:38;;;;;;;;;;;;;;;22.70;49.32;101866.88;5059759;28;1973;-64
2022/09/01 10:13:07;;;;;;;;;;;;;;;22.72;49.54;101872.75;5058621;28;3786;-65
2022/09/01 10:15:33;;;;;;;;;;;;;;;22.71;49.95;101862.59;5048114;28;4293;-64
2022/09/01 10:18:06;;;;;;;;;;;;;;;22.77;50.59;101865.81;5052385;28;4172;-64
2022/09/01 10:20:58;;;;;;;;;;;;;;;22.76;50.46;101864.31;5030681;28;4397;-64
2022/09/01 10:23:27;;;;;;;;;;;;;;;22.72;50.41;101861.97;5025248;28;4305;-64
2022/09/01 10:25:58;;;;;;;;;;;;;;;22.69;50.63;101862.50;5036583;28;4259;-64
2022/09/01 10:28:25;;;;;;;;;;;;;;;22.70;50.79;101855.31;5036495;28;4167;-64
2022/09/01 10:30:52;;;;;;;;;;;;;;;22.67;50.83;101859.50;5034523;28;4220;-64
2022/09/01 10:33:19;;;;;;;;;;;;;;;22.65;50.70;101857.25;5023759;28;4453;-64
2022/09/01 10:35:48;;;;;;;;;;;;;;;22.83;51.51;101843.03;5034030;28;4242;-63
2022/09/01 10:38:15;;;;;;;;;;;;;;;23.00;50.51;101854.06;5050237;28;4235;-62
2022/09/01 10:40:47;;;;;;;;;;;;;;;22.98;50.43;101845.25;5031845;28;4953;-63
2022/09/01 10:43:34;;;;;;;;;;;;;;;23.05;50.01;101849.25;5035042;28;4190;-62
2022/09/01 10:46:18;;;;;;;;;;;;;;;23.11;49.98;101857.44;5035849;28;4053;-63
2022/09/01 10:48:51;;;;;;;;;;;;;;;23.14;49.96;101848.25;5036239;28;5300;-62
2022/09/01 10:51:21;;;;;;;;;;;;;;;23.15;49.80;101851.88;5038921;28;4215;-64
2022/09/01 10:53:56;;;;;;;;;;;;;;;23.13;49.77;101846.00;5028888;28;5258;-63
2022/09/01 10:56:27;;;;;;;;;;;;;;;23.16;49.99;101847.63;5036089;28;4170;-62
2022/09/01 10:59:20;;;;;;;;;;;;;;;23.06;49.50;101844.94;5033126;28;5607;-63
2022/09/01 11:02:06;;;;;;;;;;;;;;;23.11;49.85;101845.91;5037108;28;4114;-64
2022/09/01 11:04:57;;;;;;;;;;;;;;;23.20;49.67;101847.81;5036122;28;4515;-65
2022/09/01 11:07:28;;;;;;;;;;;;;;;23.26;49.59;101836.56;5035022;28;4417;-65
2022/09/01 11:10:20;;;;;;;;;;;;;;;23.11;49.66;101834.34;5037233;28;5337;-65
2022/09/01 11:13:20;;;;;;;;;;;;;;;23.13;49.59;101846.00;5038797;28;5301;-65
2022/09/01 11:15:46;;;;;;;;;;;;;;;23.11;49.44;101834.34;5050443;28;4602;-64
2022/09/01 11:18:17;;;;;;;;;;;;;;;22.88;49.77;101841.84;5038390;28;4236;-67
2022/09/01 11:20:44;;;;;;;;;;;;;;;22.85;49.93;101837.34;5053483;28;4379;-65
2022/09/01 11:23:33;;;;;;;;;;;;;;;22.84;49.98;101844.53;5048791;28;4145;-64
2022/09/01 11:26:01;;;;;;;;;;;;;;;22.82;50.15;101840.78;5033911;28;4153;-65
2022/09/01 11:28:48;;;;;;;;;;;;;;;22.78;49.94;101836.28;5030759;28;4235;-65
2022/09/01 11:31:17;;;;;;;;;;;;;;;22.77;50.04;101842.72;5036911;28;4103;-65
2022/09/01 11:33:47;;;;;;;;;;;;;;;22.76;50.07;101841.22;5038410;28;5466;-65
2022/09/01 11:36:25;;;;;;;;;;;;;;;22.76;49.90;101841.22;5031086;28;4215;-65
2022/09/01 11:38:59;;;;;;;;;;;;;;;22.76;50.28;101841.94;5044442;28;6824;-63
2022/09/01 11:41:29;;;;;;;;;;;;;;;22.76;50.26;101841.94;5046365;28;4512;-64
2022/09/01 11:43:59;;;;;;;;;;;;;;;22.77;50.77;101839.84;5035220;28;4088;-60
2022/09/01 11:46:31;;;;;;;;;;;;;;;22.71;50.16;101840.25;5033393;28;4432;-65
2022/09/01 11:48:59;;;;;;;;;;;;;;;22.72;50.20;101835.22;5034080;28;5340;-59
2022/09/01 11:51:25;;;;;;;;;;;;;;;22.61;47.86;101836.06;5045615;28;4207;-66
2022/09/01 11:53:51;;;;;;;;;;;;;;;22.79;49.70;101834.91;5039162;28;4667;-65
2022/09/01 11:56:19;;;;;;;;;;;;;;;23.60;48.08;101830.97;5031770;28;4573;-63
2022/09/01 11:58:45;;;;;;;;;;;;;;;23.45;47.64;101840.34;5032079;28;4404;-64
2022/09/01 12:01:16;;;;;;;;;;;;;;;23.47;47.32;101823.09;5034358;28;4554;-64
2022/09/01 12:03:43;;;;;;;;;;;;;;;23.45;47.61;101825.91;5033237;28;5826;-62
2022/09/01 12:06:10;;;;;;;;;;;;;;;23.45;47.53;101831.69;5038268;28;5531;-65
2022/09/01 12:08:41;;;;;;;;;;;;;;;23.39;48.06;101838.66;5039439;28;5701;-65
2022/09/01 12:11:11;;;;;;;;;;;;;;;23.47;47.85;101840.44;5035428;28;4031;-66
2022/09/01 12:13:38;;;;;;;;;;;;;;;23.47;47.27;101834.66;5030957;28;5738;-64
2022/09/01 12:16:05;;;;;;;;;;;;;;;22.96;47.50;101824.94;5030357;28;5184;-62
2022/09/01 12:18:46;;;;;;;;;;;;;;;23.15;47.21;101825.88;5035693;28;5219;-69
2022/09/01 12:21:20;;;;;;;;;;;;;;;23.24;47.27;101830.66;5034465;28;4183;-68
2022/09/01 12:23:46;;;;;;;;;;;;;;;23.27;47.02;101820.69;5035533;28;5468;-65
2022/09/01 12:26:13;;;;;;;;;;;;;;;23.34;47.22;101828.31;5037638;28;4290;-64
2022/09/01 12:28:40;;;;;;;;;;;;;;;23.30;47.45;101830.25;5035154;28;4153;-63
2022/09/01 12:31:07;;;;;;;;;;;;;;;23.27;47.16;101828.63;5035581;28;4207;-63
2022/09/01 12:33:33;;;;;;;;;;;;;;;23.19;47.20;101826.84;5035100;28;4578;-62
2022/09/01 12:36:19;;;;;;;;;;;;;;;23.27;47.43;101825.75;5051872;28;4166;-63
2022/09/01 12:38:45;;;;;;;;;;;;;;;23.42;47.58;101827.94;5032040;28;4284;-63
2022/09/01 12:41:31;;;;;;;;;;;;;;;23.32;47.40;101831.09;5038398;28;4329;-63
2022/09/01 12:44:18;;;;;;;;;;;;;;;23.25;46.79;101826.41;5036560;28;4370;-63
2022/09/01 12:46:44;;;;;;;;;;;;;;;23.83;47.50;101833.56;5038236;28;4779;-66
2022/09/01 12:49:18;;;;;;;;;;;;;;;24.84;44.50;101821.47;5039875;28;4213;-76
2022/09/01 12:51:47;;;;;;;;;;;;;;;24.76;44.25;101820.38;5030422;28;4765;-67
2022/09/01 12:54:13;;;;;;;;;;;;;;;24.97;44.04;101816.19;5029499;28;4828;-66
2022/09/01 12:56:40;;;;;;;;;;;;;;;24.40;44.49;101811.56;5033083;28;4349;-69
2022/09/01 12:59:13;;;;;;;;;;;;;;;24.79;44.17;101813.28;5039633;28;4184;-66
2022/09/01 13:01:43;;;;;;;;;;;;;;;23.82;45.59;101817.63;5051680;28;5439;-68
2022/09/01 13:04:14;;;;;;;;;;;;;;;23.59;46.69;101818.69;5037438;28;4718;-63
2022/09/01 13:06:41;;;;;;;;;;;;;;;23.69;46.65;101818.41;5023229;28;4735;-65
2022/09/01 13:09:07;;;;;;;;;;;;;;;23.76;45.21;101820.22;5035621;28;4572;-62
2022/09/01 13:11:35;;;;;;;;;;;;;;;23.71;44.44;101818.50;5032469;28;4280;-62
2022/09/01 13:14:22;;;;;;;;;;;;;;;23.40;44.89;101814.13;5028848;28;4343;-64
2022/09/01 13:16:49;;;;;;;;;;;;;;;23.45;44.84;101811.44;5012726;28;4501;-63